Flight Track Log - Related Links

Times and Time Zones

All times are in EDT time to prevent confusion due to time zone crossing. See the AFL150 flight status page for this flight to view local times or setup timezone preferences in your user account.

Time Position Orientation Groundspeed Altitude Reporting Facility
EDT Latitude Longitude Course Direction KTS MPH feet Rate Location/Type
Sat 06:56:00 AM 56.2409 36.6991 307° West  Level Estimated
Sat 06:57:00 AM 56.3096 36.5298 306° West  Level Estimated
Sat 06:58:00 AM 56.3781 36.3598 306° West  Level Estimated
Sat 06:59:00 AM 56.4464 36.1892 306° West  Level Estimated
Sat 07:00:00 AM 56.5144 36.0179 306° West  Level Estimated
Sat 07:01:00 AM 56.5822 35.8461 306° West  Level Estimated
Sat 07:02:00 AM 56.6498 35.6736 306° West  Level Estimated
Sat 07:03:00 AM 56.7171 35.5006 305° West  Level Estimated
Sat 07:04:00 AM 56.7842 35.3269 305° West  Level Estimated
Sat 07:05:00 AM 56.8510 35.1526 305° West  Level Estimated
Sat 07:06:00 AM 56.9176 34.9776 305° West  Level Estimated
Sat 07:07:00 AM 56.9839 34.8021 305° West  Level Estimated
Sat 07:08:00 AM 57.0500 34.6259 305° West  Level Estimated
Sat 07:09:00 AM 57.1159 34.4491 304° West  Level Estimated
Sat 07:10:00 AM 57.1815 34.2716 304° West  Level Estimated
Sat 07:11:00 AM 57.2468 34.0936 304° West  Level Estimated
Sat 07:12:00 AM 57.3119 33.9149 304° West  Level Estimated
Sat 07:13:00 AM 57.3768 33.7355 304° West  Level Estimated
Sat 07:14:00 AM 57.4414 33.5556 304° West  Level Estimated
Sat 07:15:00 AM 57.5057 33.3750 304° West  Level Estimated
Sat 07:16:00 AM 57.5698 33.1937 303° West  Level Estimated
Sat 07:17:00 AM 57.6336 33.0118 303° West  Level Estimated
Sat 07:18:00 AM 57.6971 32.8293 303° West  Level Estimated
Sat 07:19:00 AM 57.7604 32.6462 303° West  Level Estimated
Sat 07:20:00 AM 57.8234 32.4624 303° West  Level Estimated
Sat 07:21:00 AM 57.8862 32.2780 303° West  Level Estimated
Sat 07:22:00 AM 57.9487 32.0929 303° West  Level Estimated
Sat 07:23:00 AM 58.0109 31.9071 302° West  Level Estimated
Sat 07:24:00 AM 58.0728 31.7208 302° West  Level Estimated
Sat 07:25:00 AM 58.1345 31.5337 302° West  Level Estimated
Sat 07:26:00 AM 58.1959 31.3461 302° West  Level Estimated
Sat 07:27:00 AM 58.2570 31.1578 302° West  Level Estimated
Sat 07:28:00 AM 58.3179 30.9688 302° West  Level Estimated
Sat 07:29:00 AM 58.3784 30.7792 301° West  Level Estimated
Sat 07:30:00 AM 58.4387 30.5889 301° West  Level Estimated
Sat 07:31:00 AM 58.4987 30.3980 301° West  Level Estimated
Sat 07:32:00 AM 58.5584 30.2064 301° West  Level Estimated
Sat 07:33:00 AM 58.6179 30.0142 301° West  Level Estimated
Sat 07:34:00 AM 58.6770 29.8213 301° West  Level Estimated
Sat 07:35:00 AM 58.7359 29.6278 300° West  Level Estimated
Sat 07:36:00 AM 58.7944 29.4336 300° West  Level Estimated
Sat 07:37:00 AM 58.8527 29.2388 300° West  Level Estimated
Sat 07:38:00 AM 58.9107 29.0433 300° West  Level Estimated
Sat 07:39:00 AM 58.9684 28.8472 300° West  Level Estimated
Sat 07:40:00 AM 59.0257 28.6504 300° West  Level Estimated
Sat 07:41:00 AM 59.0828 28.4529 299° West  Level Estimated
Sat 07:42:00 AM 59.1396 28.2548 299° West  Level Estimated
Sat 07:43:00 AM 59.1961 28.0560 299° West  Level Estimated
Sat 07:44:00 AM 59.2523 27.8566 299° West  Level Estimated
Sat 07:45:00 AM 59.3081 27.6565 299° West  Level Estimated
Sat 07:46:00 AM 59.3637 27.4557 299° West  Level Estimated
Sat 07:47:00 AM 59.4189 27.2543 298° West  Level Estimated
Sat 07:48:00 AM 59.4739 27.0523 298° West  Level Estimated
Sat 07:49:00 AM 59.5285 26.8496 298° West  Level Estimated
Sat 07:50:00 AM 59.5828 26.6462 298° West  Level Estimated
Sat 07:51:00 AM 59.6368 26.4422 298° West  Level Estimated
Sat 07:52:00 AM 59.6905 26.2375 298° West  Level Estimated
Sat 07:53:00 AM 59.7439 26.0322 297° West  Level Estimated
Sat 07:54:00 AM 59.7969 25.8262 297° West  Level Estimated
Sat 07:54:16 AM 59.9240 26.7125 280° West 443 510 36,000  Level FlightAware ADS-B
Sat 07:55:58 AM 59.9696 26.3085 290° West 440 506 36,000  Level FlightAware ADS-B
Sat 07:56:00 AM 60.0173 26.3548 298° West  Level Estimated
Sat 07:56:52 AM 60.0183 26.1108 301° West 439 505 36,000  Level FlightAware ADS-B
Sat 07:57:34 AM 60.0629 25.9682 302° West 438 504 36,000  Level FlightAware ADS-B
Sat 07:58:23 AM 60.1135 25.8024 301° West 431 496 36,000  Level FlightAware ADS-B
Sat 07:58:54 AM 60.1461 25.6941 301° West 431 496 36,000  Level FlightAware ADS-B
Sat 07:59:46 AM 60.1991 25.5171 301° West 430 495 36,000  Level FlightAware ADS-B
Sat 08:00:16 AM 60.2296 25.4144 301° West 429 494 36,000  Level FlightAware ADS-B
Sat 08:00:47 AM 60.2602 25.3110 301° West 428 493 36,000  Level FlightAware ADS-B
Sat 08:01:26 AM 60.2999 25.1762 301° West 427 491 36,000  Level FlightAware ADS-B
Sat 08:01:56 AM 60.3250 25.0906 301° West 428 493 36,000  Level FlightAware ADS-B
Sat 08:02:35 AM 60.3659 24.9500 300° West 429 494 36,000  Level FlightAware ADS-B
Sat 08:03:07 AM 60.4009 24.8289 300° West 428 493 36,000  Level FlightAware ADS-B
Sat 08:03:46 AM 60.4393 24.6958 300° West 428 493 36,000  Level FlightAware ADS-B
Sat 08:04:24 AM 60.4724 24.5802 300° West 426 490 36,000  Level FlightAware ADS-B
Sat 08:05:53 AM 60.5635 24.2588 300° West 424 488 36,000  Level FlightAware ADS-B
Sat 08:06:24 AM 60.5946 24.1483 300° West 424 488 36,000  Level FlightAware ADS-B
Sat 08:06:57 AM 60.6239 24.0436 300° West 423 487 36,000  Level FlightAware ADS-B
Sat 08:07:35 AM 60.6627 23.9044 299° West 424 488 36,000  Level FlightAware ADS-B
Sat 08:08:07 AM 60.6875 23.8147 299° West 425 489 36,000  Level FlightAware ADS-B
Sat 08:08:46 AM 60.7305 23.6587 299° West 426 490 36,000  Level FlightAware ADS-B
Sat 08:09:18 AM 60.7579 23.5586 299° West 427 491 36,000  Level FlightAware ADS-B
Sat 08:09:57 AM 60.7987 23.4091 299° West 428 493 36,000  Level FlightAware ADS-B
Sat 08:12:37 AM 60.9838 22.8977 315° West 419 482 36,000  Level FlightAware ADS-B
Sat 08:13:27 AM 61.0457 22.7721 316° Northwest 419 482 36,000  Level FlightAware ADS-B
Sat 08:14:06 AM 61.1066 22.6484 315° West 421 484 36,000  Level FlightAware ADS-B
Sat 08:15:08 AM 61.1834 22.4903 315° West 423 487 36,000  Level FlightAware ADS-B
Sat 08:20:19 AM 61.6095 21.5901 314° West 401 461 36,000 Level FlightAware ADS-B
Sat 08:22:00 AM 61.6860 21.2099 293° West  Level Estimated
Sat 08:23:00 AM 61.7309 20.9832 293° West  Level Estimated
Sat 08:24:00 AM 61.7755 20.7558 293° West  Level Estimated
Sat 08:25:00 AM 61.8197 20.5277 292° West  Level Estimated
Sat 08:26:00 AM 61.8635 20.2990 292° West  Level Estimated
Sat 08:27:00 AM 61.9070 20.0697 292° West  Level Estimated
Sat 08:28:00 AM 61.9500 19.8397 292° West  Level Estimated
Sat 08:29:00 AM 61.9927 19.6090 292° West  Level Estimated
Sat 08:30:00 AM 62.0350 19.3777 291° West  Level Estimated
Sat 08:31:00 AM 62.0769 19.1458 291° West  Level Estimated
Sat 08:32:00 AM 62.1184 18.9132 291° West  Level Estimated
Sat 08:33:00 AM 62.1595 18.6800 291° West  Level Estimated
Sat 08:34:00 AM 62.2002 18.4461 291° West  Level Estimated
Sat 08:35:00 AM 62.2405 18.2117 290° West  Level Estimated
Sat 08:36:00 AM 62.2805 17.9766 290° West  Level Estimated
Sat 08:37:00 AM 62.3200 17.7409 290° West  Level Estimated
Sat 08:38:00 AM 62.3591 17.5045 290° West  Level Estimated
Sat 08:39:00 AM 62.3979 17.2676 290° West  Level Estimated
Sat 08:40:00 AM 62.4362 17.0300 289° West  Level Estimated
Sat 08:41:00 AM 62.4741 16.7919 289° West  Level Estimated
Sat 08:42:00 AM 62.5116 16.5531 289° West  Level Estimated
Sat 08:43:00 AM 62.5488 16.3137 289° West  Level Estimated
Sat 08:44:00 AM 62.5854 16.0738 288° West  Level Estimated
Sat 08:45:00 AM 62.6217 15.8332 288° West  Level Estimated
Sat 08:46:00 AM 62.6576 15.5921 288° West  Level Estimated
Sat 08:47:00 AM 62.6931 15.3504 288° West  Level Estimated
Sat 08:48:00 AM 62.7281 15.1081 288° West  Level Estimated
Sat 08:49:00 AM 62.7627 14.8652 287° West  Level Estimated
Sat 08:50:00 AM 62.7969 14.6218 287° West  Level Estimated
Sat 08:51:00 AM 62.8307 14.3778 287° West  Level Estimated
Sat 08:52:00 AM 62.8641 14.1332 287° West  Level Estimated
Sat 08:53:00 AM 62.8970 13.8881 287° West  Level Estimated
Sat 08:54:00 AM 62.9295 13.6425 286° West  Level Estimated
Sat 08:55:00 AM 62.9616 13.3963 286° West  Level Estimated
Sat 08:56:00 AM 62.9932 13.1495 286° West  Level Estimated
Sat 08:57:00 AM 63.0245 12.9023 286° West  Level Estimated
Sat 08:58:00 AM 63.0552 12.6545 285° West  Level Estimated
Sat 08:59:00 AM 63.0856 12.4062 285° West  Level Estimated
Sat 09:00:00 AM 63.1155 12.1573 285° West  Level Estimated
Sat 09:01:00 AM 63.1450 11.9080 285° West  Level Estimated
Sat 09:02:00 AM 63.1740 11.6582 285° West  Level Estimated
Sat 09:03:00 AM 63.2026 11.4078 284° West  Level Estimated
Sat 09:04:00 AM 63.2308 11.1570 284° West  Level Estimated
Sat 09:05:00 AM 63.2585 10.9057 284° West  Level Estimated
Sat 09:06:00 AM 63.2858 10.6539 284° West  Level Estimated
Sat 09:07:00 AM 63.3126 10.4016 283° West  Level Estimated
Sat 09:08:00 AM 63.3390 10.1489 283° West  Level Estimated
Sat 09:09:00 AM 63.3650 9.8957 283° West  Level Estimated
Sat 09:10:00 AM 63.3904 9.6420 283° West  Level Estimated
Sat 09:11:00 AM 63.4155 9.3879 283° West  Level Estimated
Sat 09:12:00 AM 63.4401 9.1334 282° West  Level Estimated
Sat 09:13:00 AM 63.4642 8.8784 282° West  Level Estimated
Sat 09:14:00 AM 63.4879 8.6230 282° West  Level Estimated
Sat 09:15:00 AM 63.5111 8.3672 282° West  Level Estimated
Sat 09:16:00 AM 63.5339 8.1110 281° West  Level Estimated
Sat 09:17:00 AM 63.5562 7.8544 281° West  Level Estimated
Sat 09:18:00 AM 63.5780 7.5974 281° West  Level Estimated
Sat 09:19:00 AM 63.5994 7.3399 281° West  Level Estimated
Sat 09:20:00 AM 63.6203 7.0821 280° West  Level Estimated
Sat 09:21:00 AM 63.6408 6.8239 280° West  Level Estimated
Sat 09:22:00 AM 63.6608 6.5654 280° West  Level Estimated
Sat 09:23:00 AM 63.6804 6.3065 280° West  Level Estimated
Sat 09:24:00 AM 63.6994 6.0472 280° West  Level Estimated
Sat 09:25:00 AM 63.7180 5.7876 279° West  Level Estimated
Sat 09:26:00 AM 63.7362 5.5277 279° West  Level Estimated
Sat 09:27:00 AM 63.7538 5.2674 279° West  Level Estimated
Sat 09:28:00 AM 63.7710 5.0068 279° West  Level Estimated
Sat 09:29:00 AM 63.7878 4.7459 278° West  Level Estimated
Sat 09:30:00 AM 63.8040 4.4847 278° West  Level Estimated
Sat 09:31:00 AM 63.8198 4.2232 278° West  Level Estimated
Sat 09:32:00 AM 63.8351 3.9614 278° West  Level Estimated
Sat 09:33:00 AM 63.8500 3.6993 277° West  Level Estimated
Sat 09:34:00 AM 63.8643 3.4370 277° West  Level Estimated
Sat 09:35:00 AM 63.8782 3.1743 277° West  Level Estimated
Sat 09:36:00 AM 63.8916 2.9115 277° West  Level Estimated
Sat 09:37:00 AM 63.9046 2.6484 276° West  Level Estimated
Sat 09:38:00 AM 63.9170 2.3850 276° West  Level Estimated
Sat 09:39:00 AM 63.9290 2.1214 276° West  Level Estimated
Sat 09:40:00 AM 63.9405 1.8576 276° West  Level Estimated
Sat 09:41:00 AM 63.9515 1.5936 276° West  Level Estimated
Sat 09:42:00 AM 63.9621 1.3294 275° West  Level Estimated
Sat 09:43:00 AM 63.9721 1.0649 275° West  Level Estimated
Sat 09:44:00 AM 63.9817 0.8004 275° West  Level Estimated
Sat 09:45:00 AM 63.9908 0.5356 275° West  Level Estimated
Sat 09:46:00 AM 63.9994 0.2706 274° West  Level Estimated
Sat 09:47:00 AM 64.0075 0.0055 274° West  Level Estimated
Sat 09:48:00 AM 64.0152 -0.2597 274° West  Level Estimated
Sat 09:49:00 AM 64.0223 -0.5251 274° West  Level Estimated
Sat 09:50:00 AM 64.0290 -0.7907 273° West  Level Estimated
Sat 09:51:00 AM 64.0352 -1.0563 273° West  Level Estimated
Sat 09:52:00 AM 64.0409 -1.3221 273° West  Level Estimated
Sat 09:53:00 AM 64.0461 -1.5879 273° West  Level Estimated
Sat 09:54:00 AM 64.0509 -1.8539 272° West  Level Estimated
Sat 09:55:00 AM 64.0551 -2.1199 272° West  Level Estimated
Sat 09:56:00 AM 64.0589 -2.3861 272° West  Level Estimated
Sat 09:57:00 AM 64.0622 -2.6523 272° West  Level Estimated
Sat 09:58:00 AM 64.0650 -2.9185 271° West  Level Estimated
Sat 09:59:00 AM 64.0673 -3.1848 271° West  Level Estimated
Sat 10:00:00 AM 64.0691 -3.4511 271° West  Level Estimated
Sat 10:01:00 AM 64.0704 -3.7175 271° West  Level Estimated
Sat 10:02:00 AM 64.0713 -3.9839 271° West  Level Estimated
Sat 10:03:00 AM 64.0716 -4.2503 270° West  Level Estimated
Sat 10:04:00 AM 64.0715 -4.5167 270° West  Level Estimated
Sat 10:05:00 AM 64.0709 -4.7831 270° West  Level Estimated
Sat 10:06:00 AM 64.0698 -5.0495 270° West  Level Estimated
Sat 10:07:00 AM 64.0682 -5.3158 269° West  Level Estimated
Sat 10:08:00 AM 64.0661 -5.5821 269° West  Level Estimated
Sat 10:09:00 AM 64.0635 -5.8484 269° West  Level Estimated
Sat 10:10:00 AM 64.0605 -6.1146 269° West  Level Estimated
Sat 10:11:00 AM 64.0570 -6.3808 268° West  Level Estimated
Sat 10:12:00 AM 64.0529 -6.6469 268° West  Level Estimated
Sat 10:13:00 AM 64.0484 -6.9129 268° West  Level Estimated
Sat 10:14:00 AM 64.0434 -7.1788 268° West  Level Estimated
Sat 10:15:00 AM 64.0379 -7.4446 267° West  Level Estimated
Sat 10:16:00 AM 64.0320 -7.7103 267° West  Level Estimated
Sat 10:17:00 AM 64.0255 -7.9759 267° West  Level Estimated
Sat 10:18:00 AM 64.0186 -8.2414 267° West  Level Estimated
Sat 10:19:00 AM 64.0112 -8.5067 266° West  Level Estimated
Sat 10:20:00 AM 64.0033 -8.7718 266° West  Level Estimated
Sat 10:21:00 AM 63.9949 -9.0369 266° West  Level Estimated
Sat 10:22:00 AM 63.9860 -9.3017 266° West  Level Estimated
Sat 10:23:00 AM 63.9767 -9.5664 266° West  Level Estimated
Sat 10:24:00 AM 63.9668 -9.8309 265° West  Level Estimated
Sat 10:25:00 AM 63.9565 -10.0952 265° West  Level Estimated
Sat 10:26:00 AM 63.9457 -10.3593 265° West  Level Estimated
Sat 10:27:00 AM 63.9344 -10.6233 265° West  Level Estimated
Sat 10:28:00 AM 63.9227 -10.8869 264° West  Level Estimated
Sat 10:29:00 AM 63.9104 -11.1504 264° West  Level Estimated
Sat 10:30:00 AM 63.8977 -11.4136 264° West  Level Estimated
Sat 10:31:00 AM 63.8845 -11.6766 264° West  Level Estimated
Sat 10:32:00 AM 63.8709 -11.9394 263° West  Level Estimated
Sat 10:33:00 AM 63.8568 -12.2018 263° West  Level Estimated
Sat 10:34:00 AM 63.8421 -12.4640 263° West  Level Estimated
Sat 10:35:00 AM 63.8270 -12.7260 263° West  Level Estimated
Sat 10:36:00 AM 63.8115 -12.9876 262° West  Level Estimated
Sat 10:37:00 AM 63.7954 -13.2490 262° West  Level Estimated
Sat 10:38:00 AM 63.7789 -13.5100 262° West  Level Estimated
Sat 10:39:00 AM 63.7620 -13.7708 262° West  Level Estimated
Sat 10:40:00 AM 63.7445 -14.0312 262° West  Level Estimated
Sat 10:41:00 AM 63.7266 -14.2913 261° West  Level Estimated
Sat 10:42:00 AM 63.7082 -14.5511 261° West  Level Estimated
Sat 10:43:00 AM 63.6893 -14.8105 261° West  Level Estimated
Sat 10:44:00 AM 63.6700 -15.0695 261° West  Level Estimated
Sat 10:45:00 AM 63.6502 -15.3283 260° West  Level Estimated
Sat 10:46:00 AM 63.6300 -15.5866 260° West  Level Estimated
Sat 10:47:00 AM 63.6093 -15.8446 260° West  Level Estimated
Sat 10:48:00 AM 63.5881 -16.1022 260° West  Level Estimated
Sat 10:49:00 AM 63.5665 -16.3594 259° West  Level Estimated
Sat 10:50:00 AM 63.5444 -16.6162 259° West  Level Estimated
Sat 10:51:00 AM 63.5218 -16.8726 259° West  Level Estimated
Sat 10:52:00 AM 63.4988 -17.1287 259° West  Level Estimated
Sat 10:53:00 AM 63.4753 -17.3842 258° West  Level Estimated
Sat 10:54:00 AM 63.4514 -17.6394 258° West  Level Estimated
Sat 10:55:00 AM 63.4271 -17.8941 258° West  Level Estimated
Sat 10:56:00 AM 63.4022 -18.1485 258° West  Level Estimated
Sat 10:57:00 AM 63.3769 -18.4023 258° West  Level Estimated
Sat 10:58:00 AM 63.3512 -18.6557 257° West  Level Estimated
Sat 10:59:00 AM 63.3251 -18.9087 257° West  Level Estimated
Sat 11:00:00 AM 63.2984 -19.1611 257° West  Level Estimated
Sat 11:01:00 AM 63.2714 -19.4132 257° West  Level Estimated
Sat 11:02:00 AM 63.2439 -19.6647 256° West  Level Estimated
Sat 11:03:00 AM 63.2159 -19.9158 256° West  Level Estimated
Sat 11:04:00 AM 63.1875 -20.1663 256° West  Level Estimated
Sat 11:05:00 AM 63.1586 -20.4164 256° West  Level Estimated
Sat 11:06:00 AM 63.1294 -20.6660 256° West  Level Estimated
Sat 11:07:00 AM 63.0997 -20.9150 255° West  Level Estimated
Sat 11:08:00 AM 63.0695 -21.1636 255° West  Level Estimated
Sat 11:09:00 AM 63.0389 -21.4116 255° West  Level Estimated
Sat 11:10:00 AM 63.0079 -21.6591 255° West  Level Estimated
Sat 11:11:00 AM 62.9765 -21.9061 254° West  Level Estimated
Sat 11:12:00 AM 62.9446 -22.1526 254° West  Level Estimated
Sat 11:13:00 AM 62.9123 -22.3985 254° West  Level Estimated
Sat 11:14:00 AM 62.8795 -22.6439 254° West  Level Estimated
Sat 11:15:00 AM 62.8464 -22.8887 254° West  Level Estimated
Sat 11:16:00 AM 62.8128 -23.1329 253° West  Level Estimated
Sat 11:17:00 AM 62.7788 -23.3766 253° West  Level Estimated
Sat 11:18:00 AM 62.7444 -23.6197 253° West  Level Estimated
Sat 11:19:00 AM 62.7095 -23.8623 253° West  Level Estimated
Sat 11:20:00 AM 62.6743 -24.1043 252° West  Level Estimated
Sat 11:21:00 AM 62.6386 -24.3457 252° West  Level Estimated
Sat 11:22:00 AM 62.6025 -24.5865 252° West  Level Estimated
Sat 11:23:00 AM 62.5660 -24.8268 252° West  Level Estimated
Sat 11:24:00 AM 62.5291 -25.0664 252° West  Level Estimated
Sat 11:25:00 AM 62.4917 -25.3055 251° West  Level Estimated
Sat 11:26:00 AM 62.4540 -25.5439 251° West  Level Estimated
Sat 11:27:00 AM 62.4159 -25.7817 251° West  Level Estimated
Sat 11:28:00 AM 62.3773 -26.0190 251° West  Level Estimated
Sat 11:29:00 AM 62.3384 -26.2556 251° West  Level Estimated
Sat 11:30:00 AM 62.2990 -26.4916 250° West  Level Estimated
Sat 11:31:00 AM 62.2593 -26.7270 250° West  Level Estimated
Sat 11:32:00 AM 62.2191 -26.9618 250° West  Level Estimated
Sat 11:33:00 AM 62.1786 -27.1959 250° West  Level Estimated
Sat 11:34:00 AM 62.1377 -27.4294 250° West  Level Estimated
Sat 11:35:00 AM 62.0963 -27.6623 249° West  Level Estimated
Sat 11:36:00 AM 62.0546 -27.8945 249° West  Level Estimated
Sat 11:37:00 AM 62.0125 -28.1261 249° West  Level Estimated
Sat 11:38:00 AM 61.9700 -28.3571 249° West  Level Estimated
Sat 11:39:00 AM 61.9272 -28.5874 249° West  Level Estimated
Sat 11:40:00 AM 61.8839 -28.8170 248° West  Level Estimated
Sat 11:41:00 AM 61.8403 -29.0460 248° West  Level Estimated
Sat 11:42:00 AM 61.7962 -29.2744 248° West  Level Estimated
Sat 11:43:00 AM 61.7518 -29.5021 248° West  Level Estimated
Sat 11:44:00 AM 61.7071 -29.7291 247° West  Level Estimated
Sat 11:45:00 AM 61.6619 -29.9555 247° West  Level Estimated
Sat 11:46:00 AM 61.6164 -30.1812 247° West  Level Estimated
Sat 11:47:00 AM 61.5705 -30.4063 247° West  Level Estimated
Sat 11:48:00 AM 61.5242 -30.6307 247° West  Level Estimated
Sat 11:49:00 AM 61.4776 -30.8544 247° West  Level Estimated
Sat 11:50:00 AM 61.4306 -31.0774 246° West  Level Estimated
Sat 11:51:00 AM 61.3833 -31.2998 246° West  Level Estimated
Sat 11:52:00 AM 61.3355 -31.5215 246° West  Level Estimated
Sat 11:53:00 AM 61.2875 -31.7425 246° West  Level Estimated
Sat 11:54:00 AM 61.2390 -31.9629 246° West  Level Estimated
Sat 11:55:00 AM 61.1902 -32.1825 245° Southwest  Level Estimated
Sat 11:56:00 AM 61.1411 -32.4015 245° Southwest  Level Estimated
Sat 11:57:00 AM 61.0916 -32.6198 245° Southwest  Level Estimated
Sat 11:58:00 AM 61.0417 -32.8374 245° Southwest  Level Estimated
Sat 11:59:00 AM 60.9915 -33.0543 245° Southwest  Level Estimated
Sat 12:00:00 PM 60.9410 -33.2705 244° Southwest  Level Estimated
Sat 12:01:00 PM 60.8901 -33.4861 244° Southwest  Level Estimated
Sat 12:02:00 PM 60.8388 -33.7010 244° Southwest  Level Estimated
Sat 12:03:00 PM 60.7873 -33.9151 244° Southwest  Level Estimated
Sat 12:04:00 PM 60.7354 -34.1286 244° Southwest  Level Estimated
Sat 12:05:00 PM 60.6831 -34.3414 243° Southwest  Level Estimated
Sat 12:06:00 PM 60.6305 -34.5535 243° Southwest  Level Estimated
Sat 12:07:00 PM 60.5776 -34.7649 243° Southwest  Level Estimated
Sat 12:08:00 PM 60.5243 -34.9756 243° Southwest  Level Estimated
Sat 12:09:00 PM 60.4707 -35.1856 243° Southwest  Level Estimated
Sat 12:10:00 PM 60.4168 -35.3949 243° Southwest  Level Estimated
Sat 12:11:00 PM 60.3626 -35.6035 242° Southwest  Level Estimated
Sat 12:12:00 PM 60.3080 -35.8115 242° Southwest  Level Estimated
Sat 12:13:00 PM 60.2531 -36.0187 242° Southwest  Level Estimated
Sat 12:14:00 PM 60.1979 -36.2253 242° Southwest  Level Estimated
Sat 12:15:00 PM 60.1423 -36.4311 242° Southwest  Level Estimated
Sat 12:16:00 PM 60.0865 -36.6362 241° Southwest  Level Estimated
Sat 12:17:00 PM 60.0303 -36.8407 241° Southwest  Level Estimated
Sat 12:18:00 PM 59.9738 -37.0444 241° Southwest  Level Estimated
Sat 12:19:00 PM 59.9170 -37.2475 241° Southwest  Level Estimated
Sat 12:20:00 PM 59.8599 -37.4499 241° Southwest  Level Estimated
Sat 12:21:00 PM 59.8025 -37.6515 241° Southwest  Level Estimated
Sat 12:22:00 PM 59.7448 -37.8525 240° Southwest  Level Estimated
Sat 12:23:00 PM 59.6867 -38.0528 240° Southwest  Level Estimated
Sat 12:24:00 PM 59.6284 -38.2524 240° Southwest  Level Estimated
Sat 12:25:00 PM 59.5698 -38.4513 240° Southwest  Level Estimated
Sat 12:26:00 PM 59.5108 -38.6495 240° Southwest  Level Estimated
Sat 12:27:00 PM 59.4516 -38.8470 240° Southwest  Level Estimated
Sat 12:28:00 PM 59.3920 -39.0438 239° Southwest  Level Estimated
Sat 12:29:00 PM 59.3322 -39.2399 239° Southwest  Level Estimated
Sat 12:30:00 PM 59.2721 -39.4353 239° Southwest  Level Estimated
Sat 12:31:00 PM 59.2117 -39.6301 239° Southwest  Level Estimated
Sat 12:32:00 PM 59.1510 -39.8241 239° Southwest  Level Estimated
Sat 12:33:00 PM 59.0900 -40.0174 239° Southwest  Level Estimated
Sat 12:34:00 PM 59.0287 -40.2101 238° Southwest  Level Estimated
Sat 12:35:00 PM 58.9671 -40.4021 238° Southwest  Level Estimated
Sat 12:36:00 PM 58.9053 -40.5934 238° Southwest  Level Estimated
Sat 12:37:00 PM 58.8431 -40.7840 238° Southwest  Level Estimated
Sat 12:38:00 PM 58.7807 -40.9739 238° Southwest  Level Estimated
Sat 12:39:00 PM 58.7180 -41.1632 238° Southwest  Level Estimated
Sat 12:40:00 PM 58.6551 -41.3517 237° Southwest  Level Estimated
Sat 12:41:00 PM 58.5918 -41.5396 237° Southwest  Level Estimated
Sat 12:42:00 PM 58.5283 -41.7268 237° Southwest  Level Estimated
Sat 12:43:00 PM 58.4645 -41.9134 237° Southwest  Level Estimated
Sat 12:44:00 PM 58.4005 -42.0992 237° Southwest  Level Estimated
Sat 12:45:00 PM 58.3362 -42.2844 237° Southwest  Level Estimated
Sat 12:46:00 PM 58.2716 -42.4689 236° Southwest  Level Estimated
Sat 12:47:00 PM 58.2067 -42.6527 236° Southwest  Level Estimated
Sat 12:48:00 PM 58.1416 -42.8358 236° Southwest  Level Estimated
Sat 12:49:00 PM 58.0762 -43.0183 236° Southwest  Level Estimated
Sat 12:50:00 PM 58.0106 -43.2001 236° Southwest  Level Estimated
Sat 12:51:00 PM 57.9447 -43.3813 236° Southwest  Level Estimated
Sat 12:52:00 PM 57.8785 -43.5618 235° Southwest  Level Estimated
Sat 12:53:00 PM 57.8121 -43.7416 235° Southwest  Level Estimated
Sat 12:54:00 PM 57.7455 -43.9207 235° Southwest  Level Estimated
Sat 12:55:00 PM 57.6786 -44.0992 235° Southwest  Level Estimated
Sat 12:56:00 PM 57.6114 -44.2771 235° Southwest  Level Estimated
Sat 12:57:00 PM 57.5440 -44.4543 235° Southwest  Level Estimated
Sat 12:58:00 PM 57.4763 -44.6308 235° Southwest  Level Estimated
Sat 12:59:00 PM 57.4084 -44.8066 234° Southwest  Level Estimated
Sat 01:00:00 PM 57.3403 -44.9819 234° Southwest  Level Estimated
Sat 01:01:00 PM 57.2719 -45.1564 234° Southwest  Level Estimated
Sat 01:02:00 PM 57.2033 -45.3303 234° Southwest  Level Estimated
Sat 01:03:00 PM 57.1344 -45.5036 234° Southwest  Level Estimated
Sat 01:04:00 PM 57.0653 -45.6763 234° Southwest  Level Estimated
Sat 01:05:00 PM 56.9959 -45.8482 234° Southwest  Level Estimated
Sat 01:06:00 PM 56.9263 -46.0196 233° Southwest  Level Estimated
Sat 01:07:00 PM 56.8565 -46.1903 233° Southwest  Level Estimated
Sat 01:08:00 PM 56.7865 -46.3604 233° Southwest  Level Estimated
Sat 01:09:00 PM 56.7162 -46.5298 233° Southwest  Level Estimated
Sat 01:10:00 PM 56.6457 -46.6986 233° Southwest  Level Estimated
Sat 01:11:00 PM 56.5750 -46.8668 233° Southwest  Level Estimated
Sat 01:12:00 PM 56.5040 -47.0343 233° Southwest  Level Estimated
Sat 01:13:00 PM 56.4328 -47.2012 232° Southwest  Level Estimated
Sat 01:14:00 PM 56.3614 -47.3675 232° Southwest  Level Estimated
Sat 01:15:00 PM 56.2898 -47.5332 232° Southwest  Level Estimated
Sat 01:16:00 PM 56.2170 -47.7003 232° Southwest  Level Estimated
Sat 01:17:00 PM 56.1440 -47.8669 232° Southwest  Level Estimated
Sat 01:18:00 PM 56.0707 -48.0330 232° Southwest  Level Estimated
Sat 01:19:00 PM 55.9972 -48.1984 232° Southwest  Level Estimated
Sat 01:20:00 PM 55.9235 -48.3631 231° Southwest  Level Estimated
Sat 01:21:00 PM 55.8495 -48.5272 231° Southwest  Level Estimated
Sat 01:22:00 PM 55.7754 -48.6908 231° Southwest  Level Estimated
Sat 01:22:27 PM 59.3500 -57.0333 230° Southwest 440 506 37,000  Level Gander Center
Sat 01:23:00 PM 55.7010 -48.8537 231° Southwest  Level Estimated
Sat 01:23:27 PM 59.2500 -57.2167 223° Southwest 440 506 37,000  Level Gander Center
Sat 01:24:00 PM 55.6264 -49.0159 231° Southwest  Level Estimated
Sat 01:24:27 PM 59.1833 -57.4167 237° Southwest 440 506 37,000  Level Gander Center
Sat 01:25:00 PM 55.5516 -49.1776 231° Southwest  Level Estimated
Sat 01:25:27 PM 59.1000 -57.5833 226° Southwest 450 518 37,000  Level Gander Center
Sat 01:26:00 PM 55.4766 -49.3386 231° Southwest  Level Estimated
Sat 01:26:27 PM 59.0167 -57.7500 226° Southwest 440 506 37,000  Level Gander Center
Sat 01:27:00 PM 55.4014 -49.4990 230° Southwest  Level Estimated
Sat 01:27:27 PM 58.9167 -57.8667 211° Southwest 440 506 37,000  Level Gander Center
Sat 01:27:58 PM 58.8667 -57.9333 215° Southwest 440 506 37,000  Level Gander Center
Sat 01:28:00 PM 55.3259 -49.6589 230° Southwest  Level Estimated
Sat 01:28:58 PM 58.7500 -58.0667 211° Southwest 440 506 37,000  Level Gander Center
Sat 01:29:58 PM 58.6667 -58.1667 212° Southwest 440 506 37,000  Level Gander Center
Sat 01:30:58 PM 58.5500 -58.2833 208° Southwest 440 506 37,000 -250 Level Gander Center
Sat 01:31:58 PM 58.4500 -58.4167 215° Southwest 440 506 36,500 -500 Descending Gander Center
Sat 01:32:58 PM 58.3333 -58.5167 204° Southwest 440 506 36,000 -250 Descending Gander Center
Sat 01:33:58 PM 58.2500 -58.6500 220° Southwest 440 506 36,000  Level Gander Center
Sat 01:34:58 PM 58.1333 -58.7500 204° Southwest 440 506 36,000  Level Gander Center
Sat 01:35:58 PM 58.0333 -58.8833 215° Southwest 440 506 36,000  Level Gander Center
Sat 01:36:58 PM 57.9167 -58.9833 204° Southwest 440 506 36,000  Level Gander Center
Sat 01:37:58 PM 57.8167 -59.1167 215° Southwest 440 506 36,000  Level Gander Center
Sat 01:38:58 PM 57.7000 -59.2167 205° Southwest 440 506 36,000  Level Gander Center
Sat 01:39:58 PM 57.6000 -59.3500 216° Southwest 440 506 36,000  Level Gander Center
Sat 01:40:58 PM 57.5000 -59.4500 208° Southwest 430 495 36,000  Level Gander Center
Sat 01:41:58 PM 57.4000 -59.5833 216° Southwest 430 495 36,000  Level Gander Center
Sat 01:42:58 PM 57.3000 -59.6833 208° Southwest 430 495 36,000  Level Gander Center
Sat 01:43:58 PM 57.1833 -59.7667 201° Southwest 430 495 36,000  Level Gander Center
Sat 01:44:58 PM 57.0833 -59.9000 216° Southwest 430 495 36,000  Level Gander Center
Sat 01:45:58 PM 56.9833 -60.0000 209° Southwest 430 495 36,000  Level Gander Center
Sat 01:46:58 PM 56.8667 -60.1167 209° Southwest 410 472 36,000  Level Gander Center
Sat 01:47:58 PM 56.7500 -60.2500 212° Southwest 430 495 36,000  Level Gander Center
Sat 01:48:58 PM 56.6500 -60.3333 205° Southwest 440 506 36,000  Level Gander Center
Sat 01:49:58 PM 56.5500 -60.4333 209° Southwest 430 495 36,000  Level Gander Center
Sat 01:50:58 PM 56.4333 -60.5500 209° Southwest 430 495 36,000  Level Gander Center
Sat 01:51:58 PM 56.3333 -60.6500 209° Southwest 430 495 36,000  Level Gander Center
Sat 01:52:58 PM 56.2333 -60.7667 213° Southwest 430 495 36,000  Level Gander Center
Sat 01:53:58 PM 56.1333 -60.8667 209° Southwest 430 495 36,000  Level Gander Center
Sat 01:54:58 PM 56.0167 -60.9500 202° Southwest 430 495 36,000  Level Gander Center
Sat 01:55:58 PM 55.9167 -61.0667 213° Southwest 430 495 36,000  Level Gander Center
Sat 01:56:58 PM 55.8167 -61.1667 209° Southwest 430 495 36,000  Level Gander Center
Sat 01:57:58 PM 55.7000 -61.2833 209° Southwest 430 495 36,000  Level Gander Center
Sat 01:58:58 PM 55.6000 -61.3667 205° Southwest 430 495 36,000  Level Gander Center
Sat 01:59:58 PM 55.4833 -61.4667 206° Southwest 430 495 36,000  Level Gander Center
Sat 02:00:58 PM 55.3833 -61.5833 214° Southwest 430 495 36,000  Level Gander Center
Sat 02:01:58 PM 55.2833 -61.6667 205° Southwest 420 483 36,000  Level Gander Center
Sat 02:02:58 PM 55.1833 -61.7833 214° Southwest 430 495 36,000  Level Gander Center
Sat 02:03:58 PM 55.0667 -61.8667 202° Southwest 420 483 36,000  Level Gander Center
Sat 02:04:58 PM 54.9667 -61.9500 206° Southwest 420 483 36,000  Level Gander Center
Sat 02:05:58 PM 54.8667 -62.0333 206° Southwest 430 495 36,000  Level Gander Center
Sat 02:06:59 PM 54.7667 -62.1500 214° Southwest 420 483 36,000  Level Gander Center
Sat 02:07:59 PM 54.6667 -62.2333 206° Southwest 420 483 36,000  Level Gander Center
Sat 02:08:59 PM 54.5500 -62.3500 210° Southwest 430 495 36,000  Level Gander Center
Sat 02:09:59 PM 54.4500 -62.4333 206° Southwest 430 495 36,000  Level Gander Center
Sat 02:10:58 PM 54.3500 -62.5167 206° Southwest 430 495 36,000  Level Gander Center
Sat 02:11:58 PM 54.2333 -62.6333 210° Southwest 430 495 36,000  Level Gander Center
Sat 02:12:58 PM 54.1167 -62.7000 199° South 420 483 36,000  Level Gander Center
Sat 02:13:58 PM 54.0167 -62.7833 206° Southwest 430 495 36,000  Level Gander Center
Sat 02:15:27 PM 53.8667 -62.9333 211° Southwest 430 495 36,000  Level Gander Center
Sat 02:16:27 PM 53.7500 -63.0333 207° Southwest 430 495 36,000  Level Gander Center
Sat 02:17:27 PM 53.6500 -63.1167 206° Southwest 420 483 36,000  Level Gander Center
Sat 02:18:27 PM 53.5500 -63.2167 211° Southwest 430 495 36,000  Level Gander Center
Sat 02:19:27 PM 53.4500 -63.3000 206° Southwest 420 483 36,000  Level Gander Center
Sat 02:20:27 PM 53.3333 -63.3833 203° Southwest 430 495 36,000  Level Gander Center
Sat 02:21:27 PM 53.2333 -63.4833 211° Southwest 430 495 36,000  Level Gander Center
Sat 02:22:27 PM 53.1000 -63.5667 201° Southwest 420 483 36,000  Level Gander Center
Sat 02:23:27 PM 53.0000 -63.6500 207° Southwest 430 495 36,000  Level Gander Center
Sat 02:24:27 PM 52.9000 -63.7500 211° Southwest 430 495 36,000  Level Gander Center
Sat 02:25:27 PM 52.8000 -63.8333 207° Southwest 430 495 36,000  Level Gander Center
Sat 02:26:27 PM 52.7000 -63.9000 202° Southwest 430 495 36,000  Level Gander Center
Sat 02:27:27 PM 52.5833 -64.0000 208° Southwest 430 495 36,000  Level Gander Center
Sat 02:28:27 PM 52.4833 -64.0833 207° Southwest 430 495 36,000  Level Gander Center
Sat 02:29:27 PM 52.3500 -64.1833 205° Southwest 430 495 36,000  Level Gander Center
Sat 02:30:07 PM 52.3000 -64.2333 211° Southwest 430 495 36,000  Level Moncton Center
Sat 02:31:07 PM 52.1833 -64.3167 204° Southwest 430 495 36,000  Level Moncton Center
Sat 02:32:07 PM 52.0833 -64.4000 207° Southwest 430 495 36,000  Level Moncton Center
Sat 02:33:07 PM 51.9667 -64.4833 204° Southwest 430 495 36,000  Level Moncton Center
Sat 02:34:07 PM 51.8667 -64.5667 207° Southwest 430 495 36,000  Level Moncton Center
Sat 02:35:07 PM 51.7500 -64.6667 208° Southwest 430 495 36,000  Level Moncton Center
Sat 02:36:07 PM 51.6500 -64.7167 197° South 430 495 36,000  Level Moncton Center
Sat 02:37:07 PM 51.5333 -64.8333 212° Southwest 430 495 36,000  Level Moncton Center
Sat 02:38:07 PM 51.4333 -64.9000 203° Southwest 430 495 36,000  Level Moncton Center
Sat 02:39:07 PM 51.3333 -64.9833 208° Southwest 430 495 36,000  Level Moncton Center
Sat 02:40:07 PM 51.2167 -65.0667 204° Southwest 430 495 36,000  Level Moncton Center
Sat 02:41:07 PM 51.1167 -65.1500 208° Southwest 430 495 36,000  Level Moncton Center
Sat 02:42:07 PM 51.0000 -65.2167 200° South 430 495 36,000  Level Moncton Center
Sat 02:43:07 PM 50.9000 -65.3000 208° Southwest 430 495 36,000  Level Moncton Center
Sat 02:44:07 PM 50.7833 -65.4000 208° Southwest 430 495 36,000  Level Moncton Center
Sat 02:45:07 PM 50.6667 -65.4833 204° Southwest 430 495 36,000  Level Moncton Center
Sat 02:46:07 PM 50.5500 -65.5500 200° South 440 506 36,000  Level Moncton Center
Sat 02:47:07 PM 50.4500 -65.6333 208° Southwest 440 506 36,000  Level Moncton Center
Sat 02:48:07 PM 50.3333 -65.7167 205° Southwest 440 506 36,000  Level Moncton Center
Sat 02:49:07 PM 50.2167 -65.7833 200° South 440 506 36,000  Level Moncton Center
Sat 02:50:07 PM 50.1167 -65.8667 208° Southwest 440 506 36,000  Level Moncton Center
Sat 02:51:07 PM 50.0000 -65.9667 209° Southwest 440 506 36,000  Level Moncton Center
Sat 02:52:07 PM 49.9000 -66.0333 203° Southwest 440 506 36,000  Level Moncton Center
Sat 02:53:07 PM 49.7833 -66.1000 200° South 440 506 36,000  Level Moncton Center
Sat 02:54:07 PM 49.6833 -66.1833 208° Southwest 430 495 36,000  Level Moncton Center
Sat 02:55:07 PM 49.5667 -66.2500 200° South 430 495 36,000  Level Moncton Center
Sat 02:56:07 PM 49.4667 -66.3333 208° Southwest 430 495 36,000  Level Moncton Center
Sat 02:57:07 PM 49.3333 -66.4000 198° South 430 495 36,000  Level Moncton Center
Sat 02:58:07 PM 49.2333 -66.4667 204° Southwest 430 495 36,000  Level Moncton Center
Sat 02:59:07 PM 49.1167 -66.5667 209° Southwest 430 495 36,000  Level Moncton Center
Sat 03:00:07 PM 49.0167 -66.6500 209° Southwest 430 495 36,000  Level Moncton Center
Sat 03:01:07 PM 48.9000 -66.7167 201° Southwest 430 495 36,000  Level Moncton Center
Sat 03:02:07 PM 48.8000 -66.7833 204° Southwest 430 495 36,000  Level Moncton Center
Sat 03:03:07 PM 48.6833 -66.8500 201° Southwest 440 506 36,000  Level Moncton Center
Sat 03:04:07 PM 48.5667 -66.9333 205° Southwest 440 506 36,000  Level Moncton Center
Sat 03:05:07 PM 48.4500 -67.0167 205° Southwest 440 506 36,000  Level Moncton Center
Sat 03:06:07 PM 48.3333 -67.1000 205° Southwest 440 506 36,000  Level Moncton Center
Sat 03:07:07 PM 48.2333 -67.1667 204° Southwest 440 506 36,000  Level Moncton Center
Sat 03:08:07 PM 48.1167 -67.2333 201° Southwest 440 506 36,000  Level Moncton Center
Sat 03:13:45 PM 47.4975 -67.6423 203° Southwest 441 507 36,000  Level FlightAware ADS-B
Sat 03:14:15 PM 47.4555 -67.6689 203° Southwest 445 512 36,000  Level FlightAware ADS-B
Sat 03:14:55 PM 47.3653 -67.7260 203° Southwest 447 514 36,000  Level FlightAware ADS-B
Sat 03:15:42 PM 47.2775 -67.7812 203° Southwest 450 518 36,000  Level FlightAware ADS-B
Sat 03:16:45 PM 47.1548 -67.8583 203° Southwest 449 517 36,000  Level FlightAware ADS-B
Sat 03:17:36 PM 47.0572 -67.9190 203° Southwest 446 513 36,000  Level FlightAware ADS-B
Sat 03:18:06 PM 47.0011 -67.9541 203° Southwest 445 512 36,000  Level FlightAware ADS-B
Sat 03:18:36 PM 46.9454 -67.9888 203° Southwest 447 514 36,000  Level FlightAware ADS-B
Sat 03:19:34 PM 46.8334 -68.0582 203° Southwest 448 516 36,000  Level FlightAware ADS-B
Sat 03:20:14 PM 46.7585 -68.1002 197° South 452 520 36,000  Level FlightAware ADS-B
Sat 03:20:44 PM 46.6963 -68.1255 196° South 451 519 36,000  Level FlightAware ADS-B
Sat 03:21:14 PM 46.6427 -68.1487 197° South 452 520 36,000  Level FlightAware ADS-B
Sat 03:22:01 PM 46.5436 -68.1907 196° South 454 522 36,000  Level FlightAware ADS-B
Sat 03:22:34 PM 46.4745 -68.2193 196° South 453 521 36,000  Level FlightAware ADS-B
Sat 03:23:04 PM 46.4470 -68.2307 196° South 455 524 36,000  Level FlightAware ADS-B
Sat 03:23:38 PM 46.3517 -68.2701 196° South 456 525 36,000  Level FlightAware ADS-B
Sat 03:24:08 PM 46.2919 -68.2946 196° South 458 527 36,000  Level FlightAware ADS-B
Sat 03:24:48 PM 46.2024 -68.3313 196° South 458 527 36,000  Level FlightAware ADS-B
Sat 03:25:19 PM 46.1410 -68.3564 196° South 459 528 36,000  Level FlightAware ADS-B
Sat 03:25:59 PM 46.0589 -68.3900 196° South 462 532 36,000  Level FlightAware ADS-B
Sat 03:26:37 PM 45.9828 -68.4208 196° South 460 529 36,000  Level FlightAware ADS-B
Sat 03:27:08 PM 45.9179 -68.4471 196° South 458 527 36,000  Level FlightAware ADS-B
Sat 03:27:45 PM 45.8520 -68.4736 196° South 456 525 36,000  Level FlightAware ADS-B (EHTW / ENS)
Sat 03:28:17 PM 45.7768 -68.5042 196° South 457 526 36,000  Level FlightAware ADS-B
Sat 03:28:48 PM 45.7176 -68.5278 196° South 458 527 36,000  Level FlightAware ADS-B
Sat 03:29:19 PM 45.6523 -68.5539 196° South 459 528 36,000  Level FlightAware ADS-B
Sat 03:29:50 PM 45.5905 -68.5787 196° South 459 528 36,000  Level FlightAware ADS-B
Sat 03:30:23 PM 45.5218 -68.6062 196° South 458 527 36,000  Level FlightAware ADS-B (EHTW / ENS)
Sat 03:31:00 PM 45.4454 -68.6366 196° South 456 525 36,000  Level FlightAware ADS-B
Sat 03:31:30 PM 45.3853 -68.6606 196° South 455 524 36,000  Level FlightAware ADS-B
Sat 03:32:04 PM 45.3156 -68.6883 196° South 452 520 36,000  Level FlightAware ADS-B (EHTW / ENS)
Sat 03:32:40 PM 45.2449 -68.7161 196° South 452 520 36,000  Level FlightAware ADS-B
Sat 03:33:10 PM 45.1819 -68.7409 196° South 452 520 36,000  Level FlightAware ADS-B
Sat 03:33:41 PM 45.1217 -68.7647 196° South 450 518 36,000  Level FlightAware ADS-B
Sat 03:34:14 PM 45.0589 -68.7894 196° South 448 516 36,000  Level FlightAware ADS-B (EHTW / ENS)
Sat 03:34:46 PM 44.9912 -68.8158 195° South 444 511 36,000  Level FlightAware ADS-B (EHTW / ENS)
Sat 03:35:23 PM 44.9193 -68.8439 196° South 442 509 36,000  Level FlightAware ADS-B
Sat 03:35:44 PM 44.8785 -68.8599 197° South 442 509 36,000  Level FlightAware ADS-B (EHTW / ENS)
Sat 03:35:54 PM 44.8462 -68.8746 199° South 442 509 36,000  Level FlightAware ADS-B
Sat 03:36:27 PM 44.7954 -68.9044 205° Southwest 438 504 36,000  Level FlightAware ADS-B
Sat 03:37:04 PM 44.7280 -68.9511 207° Southwest 437 503 36,000  Level FlightAware ADS-B (EHTW / ENS)
Sat 03:37:34 PM 44.6740 -68.9885 206° Southwest 437 503 36,000  Level FlightAware ADS-B (EHTW / ENS)
Sat 03:38:11 PM 44.6074 -69.0341 206° Southwest 437 503 36,000  Level FlightAware ADS-B
Sat 03:38:44 PM 44.5510 -69.0724 206° Southwest 436 502 36,000  Level FlightAware ADS-B
Sat 03:39:16 PM 44.4943 -69.1109 206° Southwest 433 498 36,000  Level FlightAware ADS-B (EHTW / ENS)
Sat 03:39:54 PM 44.4218 -69.1598 206° Southwest 432 497 36,000  Level FlightAware ADS-B
Sat 03:40:25 PM 44.3654 -69.1977 206° Southwest 432 497 36,000  Level FlightAware ADS-B (EHTW / ENS)
Sat 03:40:56 PM 44.3090 -69.2357 206° Southwest 433 498 36,000  Level FlightAware ADS-B
Sat 03:41:30 PM 44.2474 -69.2770 206° Southwest 433 498 36,000  Level FlightAware ADS-B (KASH)
Sat 03:42:04 PM 44.1891 -69.3160 206° Southwest 436 502 36,000  Level FlightAware ADS-B (EHTW / ENS)
Sat 03:42:43 PM 44.1150 -69.3655 206° Southwest 443 510 36,000  Level FlightAware ADS-B (KASH)
Sat 03:43:17 PM 44.0524 -69.4072 206° Southwest 442 509 36,000  Level FlightAware ADS-B (KASH)
Sat 03:43:48 PM 43.9957 -69.4448 206° Southwest 432 497 36,000  Level FlightAware ADS-B (KASH)
Sat 03:44:31 PM 43.9171 -69.4969 206° Southwest 434 499 36,000  Level FlightAware ADS-B (KASH)
Sat 03:45:19 PM 43.8280 -69.5558 206° Southwest 448 516 36,000  Level FlightAware ADS-B (KASH)
Sat 03:46:04 PM 43.7437 -69.6115 206° Southwest 450 518 36,000  Level FlightAware ADS-B (KASH)
Sat 03:46:42 PM 43.6760 -69.6559 205° Southwest 450 518 36,000  Level FlightAware ADS-B
Sat 03:47:17 PM 43.6098 -69.6992 206° Southwest 451 519 36,000  Level FlightAware ADS-B
Sat 03:47:48 PM 43.5464 -69.7406 205° Southwest 449 517 36,000  Level FlightAware ADS-B (KASH)
Sat 03:48:25 PM 43.4819 -69.7826 205° Southwest 449 517 36,000  Level FlightAware ADS-B
Sat 03:48:57 PM 43.4448 -69.8036 197° South 456 525 36,000  Level FlightAware ADS-B
Sat 03:49:33 PM 43.3433 -69.8405 191° South 464 534 36,000  Level FlightAware ADS-B
Sat 03:50:03 PM 43.2800 -69.8524 186° South 469 540 36,000  Level FlightAware ADS-B
Sat 03:50:34 PM 43.2142 -69.8635 188° South 466 536 36,000  Level FlightAware ADS-B
Sat 03:51:04 PM 43.1480 -69.8747 187° South 467 537 36,000  Level FlightAware ADS-B
Sat 03:51:49 PM 43.0494 -69.8896 186° South 469 540 36,000  Level FlightAware ADS-B (KASH)
Sat 03:52:27 PM 42.9677 -69.9014 186° South 468 539 36,000  Level FlightAware ADS-B
Sat 03:52:59 PM 42.9001 -69.9112 186° South 466 536 36,000  Level FlightAware ADS-B
Sat 03:53:29 PM 42.8371 -69.9202 186° South 465 535 36,000  Level FlightAware ADS-B
Sat 03:54:00 PM 42.7703 -69.9299 186° South 468 539 36,000  Level FlightAware ADS-B
Sat 03:54:30 PM 42.7027 -69.9397 186° South 470 541 36,000  Level FlightAware ADS-B
Sat 03:55:01 PM 42.6376 -69.9490 186° South 472 543 36,000  Level FlightAware ADS-B
Sat 03:55:32 PM 42.5680 -69.9591 186° South 473 544 36,000  Level FlightAware ADS-B (KASH)
Sat 03:56:02 PM 42.5042 -69.9682 186° South 473 544 36,000  Level FlightAware ADS-B (KASH)
Sat 03:56:33 PM 42.4366 -69.9779 186° South 471 542 36,000  Level FlightAware ADS-B (KASH)
Sat 03:57:04 PM 42.3711 -69.9872 186° South 471 542 36,000  Level FlightAware ADS-B (KASH)
Sat 03:57:37 PM 42.2997 -69.9974 186° South 471 542 36,000  Level FlightAware ADS-B
Sat 03:58:08 PM 42.2359 -70.0066 187° South 469 540 36,000  Level FlightAware ADS-B
Sat 03:58:11 PM 42.2437 -70.0054 187° South 470 541 36,000  Level FlightAware ADS-B
Sat 03:58:48 PM 42.1475 -70.0299 195° South 459 528 36,000  Level FlightAware ADS-B
Sat 03:59:19 PM 42.0880 -70.0567 201° Southwest 451 519 36,000  Level FlightAware ADS-B
Sat 03:59:50 PM 42.0266 -70.0948 208° Southwest 439 505 36,000  Level FlightAware ADS-B (KASH)
Sat 03:59:58 PM 42.0128 -70.1050 209° Southwest 445 512 36,000  Level FlightAware ADS-B
Sat 04:00:03 PM 42.0102 -70.1070 209° Southwest 445 512 36,000  Level FlightAware ADS-B
Sat 04:00:31 PM 41.9766 -70.1347 216° Southwest 439 505 36,000  Level FlightAware ADS-B
Sat 04:00:44 PM 41.9348 -70.1754 219° Southwest 434 499 36,000  Level FlightAware ADS-B (KASH)
Sat 04:01:07 PM 41.9026 -70.2122 220° Southwest 433 498 36,000  Level FlightAware ADS-B (KOWD)
Sat 04:01:18 PM 41.8839 -70.2361 224° Southwest 431 496 36,000  Level FlightAware ADS-B (KASH)
Sat 04:02:09 PM 41.8172 -70.3323 227° Southwest 432 497 36,000  Level FlightAware ADS-B (ESTA / AGH)
Sat 04:02:41 PM 41.7844 -70.3794 227° Southwest 432 497 36,000  Level FlightAware ADS-B
Sat 04:03:13 PM 41.7379 -70.4468 227° Southwest 433 498 36,000  Level FlightAware ADS-B
Sat 04:03:43 PM 41.6898 -70.5165 227° Southwest 434 499 36,000  Level FlightAware ADS-B (KOWD)
Sat 04:04:14 PM 41.6458 -70.5802 227° Southwest 432 497 36,000  Level FlightAware ADS-B (KASH)
Sat 04:04:53 PM 41.5944 -70.6545 227° Southwest 432 497 36,000  Level FlightAware ADS-B (KOWD)
Sat 04:05:23 PM 41.5536 -70.7132 227° Southwest 432 497 36,000  Level FlightAware ADS-B (KOWD)
Sat 04:06:34 PM 41.4556 -70.8543 227° Southwest 435 501 36,000  Level FlightAware ADS-B (ESTA / AGH)
Sat 04:07:07 PM 41.4113 -70.9178 228° Southwest 430 495 36,000  Level FlightAware ADS-B (KASH)
Sat 04:07:37 PM 41.3704 -70.9763 228° Southwest 429 494 36,000  Level FlightAware ADS-B (KASH)
Sat 04:08:07 PM 41.3287 -71.0358 228° Southwest 428 493 36,000  Level FlightAware ADS-B (KASH)
Sat 04:08:22 PM 41.3069 -71.0677 230° Southwest 427 491 36,000  Level FlightAware ADS-B
Sat 04:08:52 PM 41.2726 -71.1269 236° Southwest 429 494 36,000  Level FlightAware ADS-B (KASH)
Sat 04:09:35 PM 41.2314 -71.2247 245° Southwest 427 491 36,000  Level FlightAware ADS-B (ESTA / AGH)
Sat 04:09:52 PM 41.2184 -71.2664 249° West 425 489 36,000  Level FlightAware ADS-B
Sat 04:10:22 PM 41.1984 -71.3398 250° West 427 491 36,000  Level FlightAware ADS-B (KASH)
Sat 04:10:56 PM 41.1777 -71.4136 249° West 427 491 36,000  Level FlightAware ADS-B
Sat 04:11:28 PM 41.1535 -71.4990 249° West 426 490 36,000  Level FlightAware ADS-B
Sat 04:11:59 PM 41.1332 -71.5708 250° West 425 489 36,000  Level FlightAware ADS-B
Sat 04:12:40 PM 41.1040 -71.6740 249° West 425 489 36,000  Level FlightAware ADS-B
Sat 04:13:31 PM 41.0595 -71.7950 232° Southwest 444 511 36,000  Level FlightAware ADS-B
Sat 04:14:11 PM 41.0020 -71.8699 224° Southwest 453 521 36,000  Level FlightAware ADS-B
Sat 04:14:41 PM 40.9562 -71.9287 224° Southwest 453 521 36,000  Level FlightAware ADS-B
Sat 04:15:29 PM 40.8852 -72.0196 224° Southwest 454 522 36,000  Level FlightAware ADS-B
Sat 04:18:20 PM 40.6257 -72.3513 225° Southwest 438 504 36,000  Level FlightAware ADS-B
Sat 04:18:54 PM 40.5944 -72.3908 225° Southwest 443 510 36,000  Level Washington Center
Sat 04:19:40 PM 40.5206 -72.4864 225° Southwest 435 501 36,000  Level Boston Center
Sat 04:20:42 PM 40.4350 -72.5956 224° Southwest 432 497 36,000  Level Boston Center
Sat 04:21:43 PM 40.3489 -72.7053 224° Southwest 431 496 36,000  Level Boston Center
Sat 04:22:44 PM 40.2589 -72.8164 223° Southwest 440 506 36,000  Level Boston Center
Sat 04:23:45 PM 40.1578 -72.9458 224° Southwest 441 507 36,000  Level Boston Center
Sat 04:24:47 PM 40.0683 -73.0550 223° Southwest 440 506 36,000  Level Boston Center
Sat 04:25:48 PM 39.9803 -73.1664 224° Southwest 441 507 36,000  Level Boston Center
Sat 04:26:49 PM 39.8919 -73.2772 224° Southwest 440 506 36,000  Level Boston Center
Sat 04:32:13 PM 39.3830 -73.8565 214° Southwest 458 527 36,000  Level FlightAware ADS-B (KPHL)
Sat 04:33:10 PM 39.2820 -73.9436 214° Southwest 458 527 36,000  Level FlightAware ADS-B (KPHL)
Sat 04:33:42 PM 39.2253 -73.9926 214° Southwest 460 529 36,000  Level FlightAware ADS-B (KPHL)
Sat 04:34:27 PM 39.1456 -74.0612 214° Southwest 461 531 36,000  Level FlightAware ADS-B (KPHL)
Sat 04:35:10 PM 39.0691 -74.1268 214° Southwest 462 532 36,000  Level FlightAware ADS-B (KPHL)
Sat 04:35:53 PM 38.9930 -74.1920 214° Southwest 462 532 36,000  Level FlightAware ADS-B (KPHL)
Sat 04:40:00 PM 38.6419 -74.4902 214° Southwest 451 519 36,000  Level FlightAware ADS-B (EGBB / BHX)
Sat 04:40:37 PM 38.5208 -74.5936 214° Southwest 453 521 36,000  Level Washington Center
Sat 04:41:41 PM 38.4167 -74.6781 212° Southwest 447 514 36,000  Level Washington Center
Sat 04:42:42 PM 38.2908 -74.7836 213° Southwest 449 517 36,000  Level Washington Center
Sat 04:43:45 PM 38.1967 -74.8625 213° Southwest 450 518 36,000  Level Washington Center
Sat 04:44:46 PM 38.0900 -74.9500 213° Southwest 453 521 36,000  Level Washington Center
Sat 04:45:48 PM 37.9619 -75.0544 213° Southwest 455 524 36,000  Level Washington Center
Sat 04:46:52 PM 37.8558 -75.1428 213° Southwest 456 525 36,000  Level Washington Center
Sat 04:47:52 PM 37.7483 -75.2306 213° Southwest 458 527 36,000  Level Washington Center
Sat 04:48:56 PM 37.6411 -75.3189 213° Southwest 459 528 36,000  Level Washington Center
Sat 04:49:57 PM 37.5333 -75.4064 213° Southwest 460 529 36,000  Level Washington Center
Sat 04:51:01 PM 37.4044 -75.5128 213° Southwest 461 531 36,000  Level Washington Center
Sat 04:52:02 PM 37.2964 -75.6008 213° Southwest 462 532 36,000  Level Washington Center
Sat 04:53:02 PM 37.1875 -75.6886 213° Southwest 463 533 36,000  Level Washington Center
Sat 04:54:06 PM 37.0786 -75.7767 213° Southwest 464 534 36,000  Level Washington Center
Sat 04:55:09 PM 36.9642 -75.8672 212° Southwest 465 535 36,000  Level Washington Center
Sat 04:56:10 PM 36.8553 -75.9533 212° Southwest 465 535 36,000  Level Washington Center
Sat 04:57:12 PM 36.7444 -76.0414 212° Southwest 467 537 36,000  Level Washington Center
Sat 04:58:16 PM 36.6253 -76.1369 213° Southwest 477 549 36,000  Level Washington Center
Sat 04:59:17 PM 36.5150 -76.2231 212° Southwest 470 541 36,000  Level Washington Center
Sat 05:00:18 PM 36.3806 -76.3303 213° Southwest 473 544 36,000  Level Washington Center
Sat 05:01:22 PM 36.2689 -76.4153 212° Southwest 474 545 36,000  Level Washington Center
Sat 05:02:22 PM 36.1578 -76.5017 212° Southwest 473 544 36,000  Level Washington Center
Sat 05:03:26 PM 36.0456 -76.5894 212° Southwest 474 545 36,000  Level Washington Center
Sat 05:04:26 PM 35.9333 -76.6789 213° Southwest 476 548 36,000  Level Washington Center
Sat 05:05:30 PM 35.7986 -76.7822 212° Southwest 476 548 36,000  Level Washington Center
Sat 05:06:30 PM 35.6861 -76.8692 212° Southwest 476 548 36,000  Level Washington Center
Sat 05:07:34 PM 35.5725 -76.9528 211° Southwest 476 548 36,000  Level Washington Center
Sat 05:08:35 PM 35.4603 -77.0394 212° Southwest 476 548 36,000  Level Washington Center
Sat 05:09:39 PM 35.3475 -77.1264 212° Southwest 476 548 36,000  Level Washington Center
Sat 05:10:40 PM 35.2275 -77.1981 206° Southwest 478 550 36,000  Level Washington Center
Sat 05:11:42 PM 35.0722 -77.2600 198° South 486 559 36,000  Level Washington Center
Sat 05:12:46 PM 34.9419 -77.3103 198° South 487 560 36,000  Level Washington Center
Sat 05:13:45 PM 34.8114 -77.3628 198° South 487 560 36,000  Level Washington Center
Sat 05:14:48 PM 34.6808 -77.4131 198° South 490 564 36,000  Level Washington Center
Sat 05:15:50 PM 34.5511 -77.4636 198° South 490 564 36,000  Level Washington Center
Sat 05:16:54 PM 34.4214 -77.5192 199° South 491 565 36,000  Level Washington Center
Sat 05:17:54 PM 34.3064 -77.6022 211° Southwest 482 555 36,000  Level Washington Center
Sat 05:18:58 PM 34.1667 -77.7047 211° Southwest 485 558 36,000  Level Washington Center
Sat 05:19:58 PM 34.0528 -77.7878 211° Southwest 485 558 36,000  Level Washington Center
Sat 05:21:02 PM 33.9319 -77.8650 208° Southwest 487 560 36,000  Level Washington Center
Sat 05:22:03 PM 33.7833 -77.9139 195° South 509 586 36,000  Level Washington Center
Sat 05:24:27 PM 33.4544 -78.0233 196° South 502 578 36,000  Level Jacksonville Center
Sat 05:25:11 PM 33.3836 -78.0489 197° South 495 570 36,000  Level Washington Center
Sat 05:26:27 PM 33.1947 -78.1072 194° South 487 560 36,000  Level Jacksonville Center
Sat 05:27:27 PM 33.0669 -78.1486 195° South 482 555 36,000  Level Jacksonville Center
Sat 05:28:27 PM 32.9411 -78.1900 195° South 477 549 36,000  Level Jacksonville Center
Sat 05:29:27 PM 32.8156 -78.2336 196° South 472 543 36,000  Level Jacksonville Center
Sat 05:30:27 PM 32.6894 -78.2697 194° South 472 543 36,000  Level Jacksonville Center
Sat 05:31:27 PM 32.5658 -78.3106 196° South 472 543 36,000  Level Jacksonville Center
Sat 05:38:27 PM 31.7303 -78.5889 197° South 451 519 36,000  Level Jacksonville Center
Sat 05:40:00 PM 31.6205 -78.5516 197° South  Level FlightAware Approximate
Sat 05:40:27 PM 31.4844 -78.6636 195° South 451 519 36,000  Level Jacksonville Center
Sat 05:41:00 PM 31.5124 -78.5909 197° South  Level FlightAware Approximate
Sat 05:41:27 PM 31.3625 -78.7056 196° South 451 519 36,600  Level Jacksonville Center
Sat 05:42:00 PM 31.4043 -78.6300 197° South  Level FlightAware Approximate
Sat 05:43:00 PM 31.2962 -78.6691 197° South  Level FlightAware Approximate
Sat 05:43:27 PM 31.1233 -78.7989 198° South 451 519 38,000  Level Jacksonville Center
Sat 05:44:27 PM 31.0078 -78.8403 197° South 451 519 38,000  Level Jacksonville Center
Sat 05:46:06 PM 30.8072 -78.9194 199° South 452 520 38,000  Level Miami Center
Sat 05:47:06 PM 30.6900 -78.9606 197° South 428 493 38,000  Level Miami Center
Sat 05:48:06 PM 30.5769 -79.0042 198° South 430 495 38,000  Level Miami Center
Sat 05:49:06 PM 30.4594 -79.0475 198° South 437 503 38,000  Level Miami Center
Sat 05:53:06 PM 29.9897 -79.2175 198° South 440 506 38,000  Level Miami Center
Sat 05:54:06 PM 29.8806 -79.2700 203° Southwest 445 512 38,000  Level Miami Center
Sat 05:55:06 PM 29.7650 -79.3153 199° South 445 512 38,000  Level Miami Center
Sat 05:56:06 PM 29.6497 -79.3558 197° South 440 506 38,000  Level Miami Center
Sat 05:57:06 PM 29.5342 -79.3983 198° South 440 506 38,000  Level Miami Center
Sat 05:58:00 PM 29.5030 -79.4008 198° South  Level FlightAware Approximate
Sat 05:58:06 PM 29.4167 -79.4361 196° South 439 505 38,000  Level Miami Center
Sat 05:59:06 PM 29.3033 -79.4811 199° South 439 505 38,000  Level Miami Center
Sat 06:04:22 PM 28.7209 -79.7261 205° Southwest 405 466 38,000  Level FlightAware ADS-B
Sat 06:06:46 PM 28.4751 -79.8524 204° Southwest 407 468 38,000  Level FlightAware ADS-B
Sat 06:07:17 PM 28.4203 -79.8803 204° Southwest 408 470 38,000  Level FlightAware ADS-B
Sat 06:07:47 PM 28.3699 -79.9061 204° Southwest 410 472 38,000  Level FlightAware ADS-B
Sat 06:08:18 PM 28.3207 -79.9312 204° Southwest 410 472 38,000  Level FlightAware ADS-B
Sat 06:08:49 PM 28.2626 -79.9609 204° Southwest 411 473 38,000  Level FlightAware ADS-B
Sat 06:09:23 PM 28.2043 -79.9906 204° Southwest 412 474 38,000  Level FlightAware ADS-B
Sat 06:10:02 PM 28.1347 -80.0259 204° Southwest 414 476 38,000  Level FlightAware ADS-B
Sat 06:10:36 PM 28.0755 -80.0560 204° Southwest 414 476 38,000  Level FlightAware ADS-B
Sat 06:11:27 PM 27.9855 -80.1017 204° Southwest 415 478 38,000  Level FlightAware ADS-B
Sat 06:11:58 PM 27.9316 -80.1290 204° Southwest 415 478 38,000  Level FlightAware ADS-B
Sat 06:12:31 PM 27.8746 -80.1578 204° Southwest 416 479 38,000  Level FlightAware ADS-B
Sat 06:13:11 PM 27.8021 -80.1944 204° Southwest 418 481 38,000  Level FlightAware ADS-B
Sat 06:13:50 PM 27.7335 -80.2291 204° Southwest 420 483 38,000  Level FlightAware ADS-B
Sat 06:14:21 PM 27.6854 -80.2534 204° Southwest 421 484 38,000  Level FlightAware ADS-B
Sat 06:14:51 PM 27.6254 -80.2836 204° Southwest 420 483 38,000  Level FlightAware ADS-B
Sat 06:15:22 PM 27.5799 -80.3064 204° Southwest 421 484 38,000  Level FlightAware ADS-B
Sat 06:15:55 PM 27.5204 -80.3363 204° Southwest 421 484 38,000  Level FlightAware ADS-B (RJTF)
Sat 06:16:56 PM 27.4148 -80.3892 204° Southwest 422 486 38,000  Level FlightAware ADS-B (RJTF)
Sat 06:17:26 PM 27.4032 -80.3950 204° Southwest 423 487 38,000  Level FlightAware ADS-B (RJTF)
Sat 06:17:56 PM 27.3227 -80.4353 204° Southwest 424 488 38,000  Level FlightAware ADS-B (RJTF)
Sat 06:19:52 PM 27.0870 -80.5528 204° Southwest 428 493 38,000  Level FlightAware ADS-B
Sat 06:20:35 PM 27.0173 -80.5875 204° Southwest 429 494 38,000  Level FlightAware ADS-B
Sat 06:21:12 PM 26.9453 -80.6233 204° Southwest 430 495 38,000  Level FlightAware ADS-B (RJTF)
Sat 06:21:55 PM 26.8631 -80.6641 204° Southwest 430 495 38,000  Level FlightAware ADS-B
Sat 06:22:27 PM 26.8083 -80.6912 204° Southwest 429 494 38,000  Level FlightAware ADS-B (RJTF)
Sat 06:23:06 PM 26.7322 -80.7289 204° Southwest 431 496 38,000  Level FlightAware ADS-B
Sat 06:23:42 PM 26.6822 -80.7536 204° Southwest 432 497 38,000  Level FlightAware ADS-B (RJTF)
Sat 06:24:26 PM 26.6007 -80.7937 204° Southwest 432 497 38,000  Level FlightAware ADS-B (RJTF)
Sat 06:24:57 PM 26.5394 -80.8240 204° Southwest 432 497 38,000  Level FlightAware ADS-B (RJTF)
Sat 06:25:42 PM 26.4560 -80.8650 204° Southwest 433 498 38,000  Level FlightAware ADS-B (RJTF)
Sat 06:26:12 PM 26.4021 -80.8914 204° Southwest 432 497 38,000  Level FlightAware ADS-B (RJTF)
Sat 06:26:56 PM 26.3171 -80.9332 204° Southwest 432 497 38,000  Level FlightAware ADS-B (RJTF)
Sat 06:27:27 PM 26.2757 -80.9535 204° Southwest 432 497 38,000  Level FlightAware ADS-B (RJTF)
Sat 06:28:27 PM 26.1604 -81.0099 204° Southwest 433 498 38,000  Level FlightAware ADS-B (RJTF)
Sat 06:29:29 PM 26.0319 -81.0727 204° Southwest 434 499 38,000  Level FlightAware ADS-B
Sat 06:30:06 PM 25.9728 -81.1042 204° Southwest 429 494 38,000  Level Miami Center
Sat 06:31:06 PM 25.8625 -81.1581 204° Southwest 434 499 38,000  Level Miami Center
Sat 06:32:06 PM 25.7525 -81.2117 204° Southwest 434 499 38,000  Level Miami Center
Sat 06:33:06 PM 25.6422 -81.2631 203° Southwest 434 499 38,000 -450 Level Miami Center
Sat 06:34:06 PM 25.5319 -81.3189 205° Southwest 429 494 37,100 -958 Descending Miami Center
Sat 06:35:05 PM 25.4325 -81.3658 203° Southwest 429 494 36,100 -1,000 Descending Miami Center
Sat 06:36:06 PM 25.3200 -81.4214 204° Southwest 434 499 35,100 -942 Descending Miami Center
Sat 06:37:06 PM 25.2100 -81.4700 202° Southwest 434 499 34,200 -950 Descending Miami Center
Sat 06:38:06 PM 25.1017 -81.5256 205° Southwest 434 499 33,200 -1,008 Descending Miami Center
Sat 06:39:05 PM 24.9914 -81.5764 203° Southwest 429 494 32,200 -1,000 Descending Miami Center
Sat 06:40:06 PM 24.8875 -81.6250 203° Southwest 424 488 31,200 -1,041 Descending Miami Center
Sat 06:41:06 PM 24.7753 -81.6803 204° Southwest 416 479 30,100 -1,059 Descending Miami Center
Sat 06:42:05 PM 24.6731 -81.7333 205° Southwest 406 467 29,100 -950 Descending Miami Center
Sat 06:43:06 PM 24.5819 -81.7800 205° Southwest 406 467 28,200 -950 Descending Miami Center
Sat 06:44:05 PM 24.5000 -81.8589 221° Southwest 413 475 27,200 -1,000 Descending Miami Center
Sat 06:45:06 PM 24.4300 -81.9497 230° Southwest 386 444 26,200 -1,000 Descending Miami Center
Sat 06:46:05 PM 24.3622 -82.0358 229° Southwest 386 444 25,200 -1,109 Descending Miami Center
Sat 06:47:05 PM 24.2967 -82.1172 229° Southwest 376 433 24,000 -1,450 Descending Miami Center
Sat 06:48:05 PM 24.2011 -82.1681 206° Southwest 370 426 22,300 -992 Descending Miami Center
Sat 06:49:06 PM 24.1056 -82.2072 201° Southwest 370 426 22,000 -1,150 Descending Miami Center
Sat 06:50:05 PM 24.0061 -82.2461 200° South 376 433 20,000 -2,034 Descending Miami Center
Sat 06:52:00 PM 23.7927 -82.2805 191° South  Level Estimated
Sat 06:59:00 PM 23.0100 -82.3800 187° South  Level FlightAware Approximate
Sat 07:00:00 PM 22.9891 -82.4091 223° Southwest  Level Estimated
Sat 07:01:00 PM 22.9891 -82.4091 223° Southwest  Level Estimated
Sat 07:02:00 PM 22.9891 -82.4091 223° Southwest  Level Estimated
Sat 07:03:00 PM 22.9891 -82.4091 223° Southwest  Level Estimated
Sat 07:04:00 PM 22.9891 -82.4091 223° Southwest  Level Estimated
Sat 07:05:00 PM 22.9891 -82.4091 223° Southwest  Level Estimated
Sat 07:06:00 PM 22.9891 -82.4091 223° Southwest  Level Estimated
Sat 07:07:00 PM 22.9891 -82.4091 223° Southwest  Level Estimated
Sat 07:08:00 PM 22.9891 -82.4091 223° Southwest  Level Estimated
Sat 07:09:00 PM 22.9891 -82.4091 223° Southwest  Level Estimated
Sat 07:10:00 PM 22.9891 -82.4091 223° Southwest  Level Estimated
Sat 07:11:00 PM 22.9891 -82.4091 223° Southwest  Level Estimated
Sat 07:12:00 PM 22.9891 -82.4091 223° Southwest  Level Estimated
Sat 07:13:00 PM 22.9891 -82.4091 223° Southwest  Level Estimated
Sat 07:14:00 PM 22.9891 -82.4091 223° Southwest  Level Estimated
Sat 07:15:00 PM 22.9891 -82.4091 223° Southwest  Level Estimated
Sat 07:16:00 PM 22.9891 -82.4091 223° Southwest  Level Estimated
Sat 07:17:00 PM 22.9891 -82.4091 223° Southwest  Level Estimated
Sat 07:18:00 PM 22.9891 -82.4091 223° Southwest  Level Estimated
Sat 07:19:00 PM 22.9891 -82.4091 223° Southwest  Level Estimated
Sat 07:20:00 PM 22.9891 -82.4091 223° Southwest  Level Estimated
Sat 07:21:00 PM 22.9891 -82.4091 223° Southwest  Level Estimated

Login

Don't have an account? Register now (free) for customized features, flight alerts, and more!